createdAt,value
2022-11-17T00:02:08.260Z,3.3
2022-11-17T00:07:08.268Z,3.2
2022-11-17T00:12:08.225Z,3.0
2022-11-17T00:17:08.231Z,2.9
2022-11-17T00:22:08.245Z,2.8
2022-11-17T00:27:08.396Z,2.5
2022-11-17T00:32:08.248Z,2.4
2022-11-17T00:37:08.241Z,2.6
2022-11-17T00:42:08.244Z,2.3
2022-11-17T00:47:08.248Z,2.0
2022-11-17T00:52:08.249Z,2.1
2022-11-17T00:57:08.250Z,1.9
2022-11-17T01:02:08.261Z,2.0
2022-11-17T01:07:08.338Z,2.2
2022-11-17T01:12:08.330Z,2.2
2022-11-17T01:17:08.270Z,2.2
2022-11-17T01:22:08.289Z,2.0
2022-11-17T01:27:08.260Z,2.1
2022-11-17T01:32:08.274Z,2.0
2022-11-17T01:37:08.277Z,2.1
2022-11-17T01:42:08.279Z,2.3
2022-11-17T01:47:08.295Z,2.3
2022-11-17T01:52:08.282Z,2.1
2022-11-17T01:57:08.282Z,2.2
2022-11-17T02:02:08.291Z,1.9
2022-11-17T02:07:08.331Z,1.4
2022-11-17T02:12:08.295Z,1.9
2022-11-17T02:17:11.719Z,1.5
2022-11-17T02:22:08.303Z,1.6
2022-11-17T02:27:08.298Z,1.4
2022-11-17T02:32:08.301Z,1.5
2022-11-17T02:37:08.311Z,1.2
2022-11-17T02:42:08.314Z,1.4
2022-11-17T02:47:08.316Z,1.3
2022-11-17T02:52:08.319Z,1.4
2022-11-17T02:57:08.323Z,1.6
2022-11-17T03:02:08.319Z,1.4
2022-11-17T03:07:08.366Z,1.4
2022-11-17T03:12:08.327Z,1.5
2022-11-17T03:17:08.330Z,1.5
2022-11-17T03:22:08.339Z,1.2
2022-11-17T03:27:08.338Z,0.8
2022-11-17T03:32:08.335Z,0.9
2022-11-17T03:37:08.334Z,0.7
2022-11-17T03:42:08.343Z,0.7
2022-11-17T03:47:08.341Z,0.6
2022-11-17T03:52:08.352Z,0.9
2022-11-17T03:57:08.365Z,0.9
2022-11-17T04:02:08.396Z,1.1
2022-11-17T04:07:08.435Z,1.5
2022-11-17T04:12:08.372Z,1.4
2022-11-17T04:17:08.365Z,1.6
2022-11-17T04:22:08.380Z,1.7
2022-11-17T04:27:08.376Z,1.8
2022-11-17T04:32:08.367Z,2.3
2022-11-17T04:37:08.467Z,1.7
2022-11-17T04:42:08.376Z,1.5
2022-11-17T04:47:08.374Z,1.2
2022-11-17T04:52:08.382Z,1.1
2022-11-17T04:57:08.401Z,1.0
2022-11-17T05:02:08.492Z,0.9
2022-11-17T05:07:08.492Z,1.0
2022-11-17T05:12:08.393Z,1.1
2022-11-17T05:17:09.946Z,1.2
2022-11-17T05:22:08.403Z,0.9
2022-11-17T05:27:08.397Z,1.0
2022-11-17T05:32:08.404Z,0.9
2022-11-17T05:37:08.406Z,0.9
2022-11-17T05:42:08.408Z,1.0
2022-11-17T05:47:08.416Z,1.3
2022-11-17T05:52:08.425Z,1.0
2022-11-17T05:57:08.424Z,0.9
2022-11-17T06:02:08.424Z,1.1
2022-11-17T06:07:08.472Z,1.0
2022-11-17T06:12:08.429Z,1.0
2022-11-17T06:17:08.437Z,1.0
2022-11-17T06:22:13.106Z,1.3
2022-11-17T06:27:08.439Z,1.4
2022-11-17T06:32:08.442Z,1.2
2022-11-17T06:37:08.436Z,1.0
2022-11-17T06:42:08.444Z,1.0
2022-11-17T06:47:08.457Z,0.8
2022-11-17T06:52:08.457Z,1.2
2022-11-17T06:57:08.460Z,0.8
2022-11-17T07:02:08.466Z,0.9
2022-11-17T07:07:08.498Z,1.0
2022-11-17T07:12:08.471Z,1.1
2022-11-17T07:17:08.488Z,0.8
2022-11-17T07:22:08.479Z,0.8
2022-11-17T07:27:08.481Z,0.9
2022-11-17T07:32:08.493Z,0.9
2022-11-17T07:37:08.488Z,0.9
2022-11-17T07:42:08.486Z,1.0
2022-11-17T07:47:09.451Z,0.6
2022-11-17T07:52:08.496Z,1.1
2022-11-17T07:57:08.499Z,0.7
2022-11-17T08:02:08.494Z,0.8
2022-11-17T08:07:08.556Z,0.7
2022-11-17T08:12:08.503Z,0.6
2022-11-17T08:17:08.506Z,1.1
2022-11-17T08:22:08.517Z,0.9
2022-11-17T08:27:08.520Z,0.6
2022-11-17T08:32:08.508Z,0.5
2022-11-17T08:37:08.510Z,0.7
2022-11-17T08:42:08.523Z,0.6
2022-11-17T08:47:08.522Z,0.6
2022-11-17T08:52:08.525Z,0.6
2022-11-17T08:57:08.546Z,0.7
2022-11-17T09:02:08.523Z,0.5
2022-11-17T09:07:08.552Z,0.7
2022-11-17T09:12:08.538Z,0.6
2022-11-17T09:17:08.533Z,0.7
2022-11-17T09:22:08.551Z,0.6
2022-11-17T09:27:08.540Z,0.6
2022-11-17T09:32:08.538Z,0.7
2022-11-17T09:37:08.542Z,0.9
2022-11-17T09:42:08.559Z,0.8
2022-11-17T09:47:08.545Z,0.8
2022-11-17T09:52:08.544Z,0.7
2022-11-17T09:57:08.550Z,0.7
2022-11-17T10:02:08.631Z,0.8
2022-11-17T10:07:08.591Z,0.8
2022-11-17T10:12:08.568Z,0.9
2022-11-17T10:17:08.595Z,0.7
2022-11-17T10:22:08.603Z,0.7
2022-11-17T10:27:08.582Z,0.7
2022-11-17T10:32:08.583Z,0.8
2022-11-17T10:37:08.599Z,0.9
2022-11-17T10:42:08.587Z,0.7
2022-11-17T10:47:08.597Z,0.7
2022-11-17T10:52:08.590Z,0.5
2022-11-17T10:57:08.596Z,0.8
2022-11-17T11:02:08.607Z,0.6
2022-11-17T11:07:08.663Z,0.7
2022-11-17T11:12:08.607Z,0.6
2022-11-17T11:17:08.612Z,0.7
2022-11-17T11:22:08.617Z,0.7
2022-11-17T11:27:08.609Z,0.7
2022-11-17T11:32:08.622Z,0.7
2022-11-17T11:37:08.621Z,0.9
2022-11-17T11:42:08.624Z,0.6
2022-11-17T11:47:08.622Z,0.5
2022-11-17T11:52:08.620Z,0.6
2022-11-17T11:57:08.635Z,0.6
2022-11-17T12:02:08.647Z,1.1
2022-11-17T12:07:08.654Z,0.6
2022-11-17T12:12:08.647Z,0.7
2022-11-17T12:17:08.645Z,0.7
2022-11-17T12:22:08.643Z,0.6
2022-11-17T12:27:08.662Z,0.7
2022-11-17T12:32:08.655Z,0.7
2022-11-17T12:37:08.652Z,0.5
2022-11-17T12:42:08.655Z,0.6
2022-11-17T12:47:08.657Z,0.8
2022-11-17T12:52:08.656Z,0.6
2022-11-17T12:57:08.660Z,0.6
2022-11-17T13:02:08.681Z,0.6
2022-11-17T13:07:08.705Z,0.6
2022-11-17T13:12:08.675Z,0.9
2022-11-17T13:17:08.673Z,0.7
2022-11-17T13:22:08.681Z,0.6
2022-11-17T13:27:08.684Z,0.7
2022-11-17T13:32:08.798Z,1.0
2022-11-17T13:37:08.687Z,0.7
2022-11-17T13:42:08.688Z,0.9
2022-11-17T13:47:08.695Z,0.7
2022-11-17T13:52:08.716Z,0.6
2022-11-17T13:57:08.702Z,0.6
2022-11-17T14:02:08.708Z,0.6
2022-11-17T14:07:08.744Z,0.6
2022-11-17T14:12:08.707Z,0.5
2022-11-17T14:17:08.713Z,0.5
2022-11-17T14:22:08.909Z,0.5
2022-11-17T14:27:08.731Z,0.7
2022-11-17T14:32:08.723Z,0.7
2022-11-17T14:37:10.436Z,0.7
2022-11-17T14:42:08.725Z,0.6
2022-11-17T14:47:08.841Z,0.6
2022-11-17T14:52:08.732Z,1.0
2022-11-17T14:57:08.836Z,0.9
2022-11-17T15:02:08.760Z,0.9
2022-11-17T15:07:08.813Z,0.7
2022-11-17T15:12:08.747Z,0.9
2022-11-17T15:17:13.925Z,0.7
2022-11-17T15:22:08.749Z,0.8
2022-11-17T15:27:08.765Z,0.9
2022-11-17T15:32:08.755Z,0.8
2022-11-17T15:37:08.763Z,0.7
2022-11-17T15:42:08.773Z,0.8
2022-11-17T15:47:08.759Z,0.6
2022-11-17T15:52:08.774Z,0.8
2022-11-17T15:57:08.775Z,0.7
2022-11-17T16:02:08.773Z,0.6
2022-11-17T16:07:08.810Z,0.8
2022-11-17T16:12:08.817Z,0.9
2022-11-17T16:17:08.778Z,0.8
2022-11-17T16:22:08.779Z,0.8
2022-11-17T16:27:08.780Z,0.8
2022-11-17T16:32:08.794Z,0.8
2022-11-17T16:37:08.783Z,0.8
2022-11-17T16:42:08.790Z,0.9
2022-11-17T16:47:08.793Z,1.1
2022-11-17T16:52:08.796Z,1.0
2022-11-17T16:57:08.795Z,1.4
2022-11-17T17:02:08.802Z,1.1
2022-11-17T17:07:08.838Z,1.0
2022-11-17T17:12:08.810Z,1.1
2022-11-17T17:17:08.807Z,1.0
2022-11-17T17:22:08.807Z,1.2
2022-11-17T17:27:08.823Z,1.1
2022-11-17T17:32:08.820Z,1.2
2022-11-17T17:37:08.815Z,1.2
2022-11-17T17:42:08.817Z,1.3
2022-11-17T17:47:08.835Z,1.1
2022-11-17T17:52:13.659Z,1.0
2022-11-17T17:57:08.827Z,1.1
2022-11-17T18:02:08.825Z,1.0
2022-11-17T18:07:08.861Z,1.0
2022-11-17T18:12:08.829Z,1.1
2022-11-17T18:17:08.829Z,1.0
2022-11-17T18:22:08.835Z,1.0
2022-11-17T18:27:08.840Z,1.1
2022-11-17T18:32:08.839Z,1.2
2022-11-17T18:37:08.845Z,1.4
2022-11-17T18:42:08.847Z,1.3
2022-11-17T18:47:08.848Z,1.4
2022-11-17T18:52:08.847Z,1.4
2022-11-17T18:57:08.844Z,1.2
2022-11-17T19:02:09.065Z,1.2
2022-11-17T19:07:08.887Z,1.2
2022-11-17T19:12:08.848Z,1.2
2022-11-17T19:17:08.871Z,1.3
2022-11-17T19:22:08.879Z,1.4
2022-11-17T19:27:08.866Z,1.4
2022-11-17T19:32:08.864Z,1.6
2022-11-17T19:37:08.881Z,1.7
2022-11-17T19:42:08.871Z,1.3
2022-11-17T19:47:08.873Z,1.4
2022-11-17T19:52:08.974Z,1.4
2022-11-17T19:57:08.883Z,1.4
2022-11-17T20:02:08.984Z,1.4
2022-11-17T20:07:08.968Z,1.8
2022-11-17T20:12:08.883Z,1.6
2022-11-17T20:17:08.900Z,1.6
2022-11-17T20:22:08.893Z,2.0
2022-11-17T20:27:08.904Z,1.5
2022-11-17T20:32:08.995Z,1.6
2022-11-17T20:37:09.006Z,1.6
2022-11-17T20:42:08.908Z,1.9
2022-11-17T20:47:08.894Z,1.7
2022-11-17T20:52:13.172Z,1.5
2022-11-17T20:57:09.007Z,1.6
2022-11-17T21:02:09.018Z,1.7
2022-11-17T21:07:08.957Z,2.1
2022-11-17T21:12:09.012Z,2.2
2022-11-17T21:17:09.092Z,1.9
2022-11-17T21:22:08.923Z,1.9
2022-11-17T21:27:09.027Z,2.1
2022-11-17T21:32:08.952Z,1.9
2022-11-17T21:37:09.029Z,1.9
2022-11-17T21:42:09.041Z,2.2
2022-11-17T21:47:09.043Z,1.9
2022-11-17T21:52:09.039Z,2.3
2022-11-17T21:57:09.045Z,2.0
2022-11-17T22:02:09.040Z,2.1
2022-11-17T22:07:09.127Z,2.2
2022-11-17T22:12:09.038Z,2.3
2022-11-17T22:17:09.052Z,2.5
2022-11-17T22:22:09.053Z,2.1
2022-11-17T22:27:09.058Z,2.3
2022-11-17T22:32:09.053Z,2.2
2022-11-17T22:37:09.054Z,2.3
2022-11-17T22:42:09.066Z,2.3
2022-11-17T22:47:09.063Z,2.2
2022-11-17T22:52:09.064Z,2.2
2022-11-17T22:57:09.067Z,2.6
2022-11-17T23:02:09.072Z,2.0
2022-11-17T23:07:09.125Z,2.2
2022-11-17T23:12:09.076Z,2.2
2022-11-17T23:17:09.075Z,2.6
2022-11-17T23:22:09.084Z,1.8
2022-11-17T23:27:09.088Z,2.4
2022-11-17T23:32:09.086Z,3.1
2022-11-17T23:37:09.087Z,2.2
2022-11-17T23:42:09.092Z,2.3
2022-11-17T23:47:09.095Z,2.0
2022-11-17T23:52:09.097Z,2.4
2022-11-17T23:57:09.092Z,2.4
